sensor_id;sensor_type;location;lat;lon;timestamp;P1;durP1;ratioP1;P2;durP2;ratioP2
76262;SDS011;65080;50.908;6.916;2023-05-07T00:01:26;9.43;;;5.30;;
76262;SDS011;65080;50.908;6.916;2023-05-07T00:03:54;4.87;;;4.37;;
76262;SDS011;65080;50.908;6.916;2023-05-07T00:06:23;5.67;;;4.87;;
76262;SDS011;65080;50.908;6.916;2023-05-07T00:08:54;5.20;;;3.80;;
76262;SDS011;65080;50.908;6.916;2023-05-07T00:11:23;4.83;;;4.17;;
76262;SDS011;65080;50.908;6.916;2023-05-07T00:13:52;7.33;;;3.90;;
76262;SDS011;65080;50.908;6.916;2023-05-07T00:16:20;8.13;;;4.87;;
76262;SDS011;65080;50.908;6.916;2023-05-07T00:18:49;7.83;;;4.50;;
76262;SDS011;65080;50.908;6.916;2023-05-07T00:21:17;5.83;;;5.10;;
76262;SDS011;65080;50.908;6.916;2023-05-07T00:23:46;7.83;;;4.63;;
76262;SDS011;65080;50.908;6.916;2023-05-07T00:26:16;8.40;;;5.67;;
76262;SDS011;65080;50.908;6.916;2023-05-07T00:28:44;11.13;;;4.73;;
76262;SDS011;65080;50.908;6.916;2023-05-07T00:31:13;5.80;;;4.07;;
76262;SDS011;65080;50.908;6.916;2023-05-07T00:33:41;5.80;;;4.37;;
76262;SDS011;65080;50.908;6.916;2023-05-07T00:36:10;5.03;;;3.50;;
76262;SDS011;65080;50.908;6.916;2023-05-07T00:38:38;4.90;;;4.23;;
76262;SDS011;65080;50.908;6.916;2023-05-07T00:41:07;7.70;;;5.23;;
76262;SDS011;65080;50.908;6.916;2023-05-07T00:43:37;5.30;;;4.23;;
76262;SDS011;65080;50.908;6.916;2023-05-07T00:46:05;7.07;;;4.70;;
76262;SDS011;65080;50.908;6.916;2023-05-07T00:48:34;4.93;;;4.07;;
76262;SDS011;65080;50.908;6.916;2023-05-07T00:51:02;6.67;;;4.20;;
76262;SDS011;65080;50.908;6.916;2023-05-07T00:53:31;6.73;;;4.33;;
76262;SDS011;65080;50.908;6.916;2023-05-07T00:55:59;6.00;;;4.23;;
76262;SDS011;65080;50.908;6.916;2023-05-07T00:58:28;10.17;;;3.60;;
76262;SDS011;65080;50.908;6.916;2023-05-07T01:00:59;3.90;;;3.40;;
76262;SDS011;65080;50.908;6.916;2023-05-07T01:03:28;4.60;;;3.50;;
76262;SDS011;65080;50.908;6.916;2023-05-07T01:05:57;4.00;;;3.40;;
76262;SDS011;65080;50.908;6.916;2023-05-07T01:08:26;3.83;;;3.40;;
76262;SDS011;65080;50.908;6.916;2023-05-07T01:10:57;3.80;;;2.97;;
76262;SDS011;65080;50.908;6.916;2023-05-07T01:13:25;2.57;;;2.37;;
76262;SDS011;65080;50.908;6.916;2023-05-07T01:15:55;5.90;;;3.17;;
76262;SDS011;65080;50.908;6.916;2023-05-07T01:18:25;5.40;;;2.93;;
76262;SDS011;65080;50.908;6.916;2023-05-07T01:20:53;3.60;;;3.30;;
76262;SDS011;65080;50.908;6.916;2023-05-07T01:23:25;3.53;;;3.10;;
76262;SDS011;65080;50.908;6.916;2023-05-07T01:25:55;5.70;;;3.50;;
76262;SDS011;65080;50.908;6.916;2023-05-07T01:28:24;4.00;;;3.30;;
76262;SDS011;65080;50.908;6.916;2023-05-07T01:30:54;4.50;;;3.20;;
76262;SDS011;65080;50.908;6.916;2023-05-07T01:33:28;5.07;;;2.90;;
76262;SDS011;65080;50.908;6.916;2023-05-07T01:35:59;4.57;;;3.67;;
76262;SDS011;65080;50.908;6.916;2023-05-07T01:38:31;3.63;;;3.10;;
76262;SDS011;65080;50.908;6.916;2023-05-07T01:41:00;3.97;;;3.03;;
76262;SDS011;65080;50.908;6.916;2023-05-07T01:43:29;4.57;;;3.63;;
76262;SDS011;65080;50.908;6.916;2023-05-07T01:45:58;3.53;;;2.87;;
76262;SDS011;65080;50.908;6.916;2023-05-07T01:48:27;3.30;;;3.00;;
76262;SDS011;65080;50.908;6.916;2023-05-07T01:50:56;3.57;;;2.60;;
76262;SDS011;65080;50.908;6.916;2023-05-07T01:53:26;6.33;;;3.10;;
76262;SDS011;65080;50.908;6.916;2023-05-07T01:55:56;3.23;;;2.77;;
76262;SDS011;65080;50.908;6.916;2023-05-07T01:58:24;3.03;;;2.73;;
76262;SDS011;65080;50.908;6.916;2023-05-07T02:00:53;3.20;;;2.80;;
76262;SDS011;65080;50.908;6.916;2023-05-07T02:03:21;4.23;;;2.70;;
76262;SDS011;65080;50.908;6.916;2023-05-07T02:05:49;3.60;;;2.83;;
76262;SDS011;65080;50.908;6.916;2023-05-07T02:08:18;3.47;;;3.00;;
76262;SDS011;65080;50.908;6.916;2023-05-07T02:10:46;6.00;;;2.80;;
76262;SDS011;65080;50.908;6.916;2023-05-07T02:13:18;6.23;;;2.93;;
76262;SDS011;65080;50.908;6.916;2023-05-07T02:15:46;4.00;;;3.40;;
76262;SDS011;65080;50.908;6.916;2023-05-07T02:18:17;4.33;;;3.30;;
76262;SDS011;65080;50.908;6.916;2023-05-07T02:20:45;5.03;;;2.57;;
76262;SDS011;65080;50.908;6.916;2023-05-07T02:23:14;5.40;;;2.67;;
76262;SDS011;65080;50.908;6.916;2023-05-07T02:25:43;3.40;;;3.10;;
76262;SDS011;65080;50.908;6.916;2023-05-07T02:28:12;3.60;;;3.07;;
76262;SDS011;65080;50.908;6.916;2023-05-07T02:30:42;6.80;;;3.37;;
76262;SDS011;65080;50.908;6.916;2023-05-07T02:33:10;3.47;;;2.70;;
76262;SDS011;65080;50.908;6.916;2023-05-07T02:35:40;4.83;;;2.77;;
76262;SDS011;65080;50.908;6.916;2023-05-07T02:38:08;5.70;;;2.67;;
76262;SDS011;65080;50.908;6.916;2023-05-07T02:40:37;3.40;;;2.73;;
76262;SDS011;65080;50.908;6.916;2023-05-07T02:43:06;4.67;;;3.30;;
76262;SDS011;65080;50.908;6.916;2023-05-07T02:45:36;4.70;;;3.67;;
76262;SDS011;65080;50.908;6.916;2023-05-07T02:48:06;6.03;;;2.93;;
76262;SDS011;65080;50.908;6.916;2023-05-07T02:50:35;3.30;;;2.77;;
76262;SDS011;65080;50.908;6.916;2023-05-07T02:53:03;5.00;;;3.43;;
76262;SDS011;65080;50.908;6.916;2023-05-07T02:55:32;5.67;;;3.83;;
76262;SDS011;65080;50.908;6.916;2023-05-07T02:58:00;2.77;;;2.57;;
76262;SDS011;65080;50.908;6.916;2023-05-07T03:00:30;3.97;;;3.57;;
76262;SDS011;65080;50.908;6.916;2023-05-07T03:02:58;3.57;;;3.27;;
76262;SDS011;65080;50.908;6.916;2023-05-07T03:05:28;3.17;;;2.87;;
76262;SDS011;65080;50.908;6.916;2023-05-07T03:07:56;3.80;;;3.50;;
76262;SDS011;65080;50.908;6.916;2023-05-07T03:10:25;4.03;;;3.33;;
76262;SDS011;65080;50.908;6.916;2023-05-07T03:12:53;3.50;;;3.20;;
76262;SDS011;65080;50.908;6.916;2023-05-07T03:15:22;5.97;;;3.33;;
76262;SDS011;65080;50.908;6.916;2023-05-07T03:17:50;5.00;;;3.53;;
76262;SDS011;65080;50.908;6.916;2023-05-07T03:20:19;4.93;;;3.23;;
76262;SDS011;65080;50.908;6.916;2023-05-07T03:22:49;3.50;;;3.00;;
76262;SDS011;65080;50.908;6.916;2023-05-07T03:25:17;3.77;;;3.37;;
76262;SDS011;65080;50.908;6.916;2023-05-07T03:27:45;5.90;;;3.43;;
76262;SDS011;65080;50.908;6.916;2023-05-07T03:30:14;4.00;;;3.60;;
76262;SDS011;65080;50.908;6.916;2023-05-07T03:32:42;5.50;;;3.27;;
76262;SDS011;65080;50.908;6.916;2023-05-07T03:35:10;4.50;;;3.57;;
76262;SDS011;65080;50.908;6.916;2023-05-07T03:37:39;3.70;;;3.40;;
76262;SDS011;65080;50.908;6.916;2023-05-07T03:40:09;5.83;;;3.30;;
76262;SDS011;65080;50.908;6.916;2023-05-07T03:42:40;4.17;;;3.37;;
76262;SDS011;65080;50.908;6.916;2023-05-07T03:45:08;3.83;;;3.37;;
76262;SDS011;65080;50.908;6.916;2023-05-07T03:47:37;3.67;;;3.07;;
76262;SDS011;65080;50.908;6.916;2023-05-07T03:50:06;5.27;;;3.50;;
76262;SDS011;65080;50.908;6.916;2023-05-07T03:52:35;3.70;;;3.40;;
76262;SDS011;65080;50.908;6.916;2023-05-07T03:55:04;7.50;;;3.60;;
76262;SDS011;65080;50.908;6.916;2023-05-07T03:57:34;3.53;;;3.20;;
76262;SDS011;65080;50.908;6.916;2023-05-07T04:00:02;3.93;;;2.97;;
76262;SDS011;65080;50.908;6.916;2023-05-07T04:02:32;4.77;;;3.40;;
76262;SDS011;65080;50.908;6.916;2023-05-07T04:05:01;4.07;;;3.67;;
76262;SDS011;65080;50.908;6.916;2023-05-07T04:07:29;4.33;;;3.80;;
76262;SDS011;65080;50.908;6.916;2023-05-07T04:09:57;6.00;;;3.33;;
76262;SDS011;65080;50.908;6.916;2023-05-07T04:12:25;4.10;;;3.70;;
76262;SDS011;65080;50.908;6.916;2023-05-07T04:14:55;5.97;;;3.43;;
76262;SDS011;65080;50.908;6.916;2023-05-07T04:17:23;5.77;;;4.10;;
76262;SDS011;65080;50.908;6.916;2023-05-07T04:19:52;3.97;;;3.10;;
76262;SDS011;65080;50.908;6.916;2023-05-07T04:22:20;4.80;;;3.67;;
76262;SDS011;65080;50.908;6.916;2023-05-07T04:24:48;7.93;;;3.73;;
76262;SDS011;65080;50.908;6.916;2023-05-07T04:27:17;3.93;;;3.37;;
76262;SDS011;65080;50.908;6.916;2023-05-07T04:29:46;5.63;;;2.80;;
76262;SDS011;65080;50.908;6.916;2023-05-07T04:32:16;4.33;;;3.13;;
76262;SDS011;65080;50.908;6.916;2023-05-07T04:34:45;3.27;;;2.97;;
76262;SDS011;65080;50.908;6.916;2023-05-07T04:37:16;3.37;;;3.03;;
76262;SDS011;65080;50.908;6.916;2023-05-07T04:39:44;4.70;;;3.63;;
76262;SDS011;65080;50.908;6.916;2023-05-07T04:42:14;4.33;;;3.20;;
76262;SDS011;65080;50.908;6.916;2023-05-07T04:44:43;4.63;;;2.90;;
76262;SDS011;65080;50.908;6.916;2023-05-07T04:47:12;3.97;;;3.00;;
76262;SDS011;65080;50.908;6.916;2023-05-07T04:49:42;3.50;;;2.97;;
76262;SDS011;65080;50.908;6.916;2023-05-07T04:52:10;4.40;;;2.73;;
76262;SDS011;65080;50.908;6.916;2023-05-07T04:54:38;3.30;;;2.90;;
76262;SDS011;65080;50.908;6.916;2023-05-07T04:57:06;3.20;;;2.90;;
76262;SDS011;65080;50.908;6.916;2023-05-07T04:59:35;4.80;;;2.97;;
76262;SDS011;65080;50.908;6.916;2023-05-07T05:02:03;3.37;;;2.90;;
76262;SDS011;65080;50.908;6.916;2023-05-07T05:04:31;3.47;;;2.70;;
76262;SDS011;65080;50.908;6.916;2023-05-07T05:07:01;4.57;;;2.53;;
76262;SDS011;65080;50.908;6.916;2023-05-07T05:09:31;3.53;;;2.57;;
76262;SDS011;65080;50.908;6.916;2023-05-07T05:11:59;4.87;;;3.23;;
76262;SDS011;65080;50.908;6.916;2023-05-07T05:14:29;3.70;;;2.70;;
76262;SDS011;65080;50.908;6.916;2023-05-07T05:16:57;5.80;;;2.43;;
76262;SDS011;65080;50.908;6.916;2023-05-07T05:19:26;3.63;;;2.60;;
76262;SDS011;65080;50.908;6.916;2023-05-07T05:21:54;3.13;;;2.83;;
76262;SDS011;65080;50.908;6.916;2023-05-07T05:24:24;3.33;;;2.90;;
76262;SDS011;65080;50.908;6.916;2023-05-07T05:26:52;4.10;;;2.40;;
76262;SDS011;65080;50.908;6.916;2023-05-07T05:29:21;3.07;;;2.70;;
76262;SDS011;65080;50.908;6.916;2023-05-07T05:31:49;6.50;;;3.40;;
76262;SDS011;65080;50.908;6.916;2023-05-07T05:34:18;2.80;;;2.60;;
76262;SDS011;65080;50.908;6.916;2023-05-07T05:36:48;3.87;;;2.63;;
76262;SDS011;65080;50.908;6.916;2023-05-07T05:39:16;2.93;;;2.50;;
76262;SDS011;65080;50.908;6.916;2023-05-07T05:41:46;4.40;;;2.80;;
76262;SDS011;65080;50.908;6.916;2023-05-07T05:44:15;2.77;;;2.20;;
76262;SDS011;65080;50.908;6.916;2023-05-07T05:46:43;3.50;;;2.30;;
76262;SDS011;65080;50.908;6.916;2023-05-07T05:49:12;3.00;;;2.20;;
76262;SDS011;65080;50.908;6.916;2023-05-07T05:51:40;3.27;;;2.30;;
76262;SDS011;65080;50.908;6.916;2023-05-07T05:54:08;4.07;;;2.47;;
76262;SDS011;65080;50.908;6.916;2023-05-07T05:56:36;3.13;;;2.60;;
76262;SDS011;65080;50.908;6.916;2023-05-07T05:59:06;4.60;;;2.67;;
76262;SDS011;65080;50.908;6.916;2023-05-07T06:01:35;5.63;;;2.33;;
76262;SDS011;65080;50.908;6.916;2023-05-07T06:04:03;4.13;;;2.60;;
76262;SDS011;65080;50.908;6.916;2023-05-07T06:06:32;3.50;;;3.20;;
76262;SDS011;65080;50.908;6.916;2023-05-07T06:09:00;2.60;;;2.40;;
76262;SDS011;65080;50.908;6.916;2023-05-07T06:11:28;2.87;;;2.30;;
76262;SDS011;65080;50.908;6.916;2023-05-07T06:13:57;3.93;;;2.50;;
76262;SDS011;65080;50.908;6.916;2023-05-07T06:16:26;2.73;;;2.20;;
76262;SDS011;65080;50.908;6.916;2023-05-07T06:18:55;3.20;;;2.47;;
76262;SDS011;65080;50.908;6.916;2023-05-07T06:21:24;2.53;;;2.00;;
76262;SDS011;65080;50.908;6.916;2023-05-07T06:23:52;3.63;;;2.40;;
76262;SDS011;65080;50.908;6.916;2023-05-07T06:26:21;2.23;;;1.77;;
76262;SDS011;65080;50.908;6.916;2023-05-07T06:28:49;5.37;;;2.37;;
76262;SDS011;65080;50.908;6.916;2023-05-07T06:31:18;3.10;;;2.00;;
76262;SDS011;65080;50.908;6.916;2023-05-07T06:33:49;2.10;;;1.90;;
76262;SDS011;65080;50.908;6.916;2023-05-07T06:36:18;5.10;;;2.60;;
76262;SDS011;65080;50.908;6.916;2023-05-07T06:38:46;3.00;;;2.23;;
76262;SDS011;65080;50.908;6.916;2023-05-07T06:41:14;3.87;;;2.20;;
76262;SDS011;65080;50.908;6.916;2023-05-07T06:43:43;4.07;;;2.07;;
76262;SDS011;65080;50.908;6.916;2023-05-07T06:46:11;3.97;;;2.23;;
76262;SDS011;65080;50.908;6.916;2023-05-07T06:48:44;3.03;;;1.87;;
76262;SDS011;65080;50.908;6.916;2023-05-07T06:51:14;2.73;;;2.17;;
76262;SDS011;65080;50.908;6.916;2023-05-07T06:53:42;3.53;;;2.07;;
76262;SDS011;65080;50.908;6.916;2023-05-07T06:56:10;2.77;;;2.30;;
76262;SDS011;65080;50.908;6.916;2023-05-07T06:58:39;2.20;;;1.97;;
76262;SDS011;65080;50.908;6.916;2023-05-07T07:01:07;2.53;;;2.33;;
76262;SDS011;65080;50.908;6.916;2023-05-07T07:03:36;6.63;;;1.97;;
76262;SDS011;65080;50.908;6.916;2023-05-07T07:06:04;2.23;;;2.03;;
76262;SDS011;65080;50.908;6.916;2023-05-07T07:08:34;2.10;;;1.90;;
76262;SDS011;65080;50.908;6.916;2023-05-07T07:11:05;2.30;;;2.10;;
76262;SDS011;65080;50.908;6.916;2023-05-07T07:13:33;2.20;;;2.00;;
76262;SDS011;65080;50.908;6.916;2023-05-07T07:16:02;4.30;;;1.80;;
76262;SDS011;65080;50.908;6.916;2023-05-07T07:18:30;3.03;;;2.03;;
76262;SDS011;65080;50.908;6.916;2023-05-07T07:20:59;5.07;;;2.00;;
76262;SDS011;65080;50.908;6.916;2023-05-07T07:23:27;2.30;;;1.30;;
76262;SDS011;65080;50.908;6.916;2023-05-07T07:25:57;2.90;;;1.90;;
76262;SDS011;65080;50.908;6.916;2023-05-07T07:28:26;4.17;;;1.80;;
76262;SDS011;65080;50.908;6.916;2023-05-07T07:30:54;2.77;;;1.70;;
76262;SDS011;65080;50.908;6.916;2023-05-07T07:33:23;2.57;;;1.80;;
76262;SDS011;65080;50.908;6.916;2023-05-07T07:35:51;3.27;;;1.80;;
76262;SDS011;65080;50.908;6.916;2023-05-07T07:38:20;2.80;;;1.63;;
76262;SDS011;65080;50.908;6.916;2023-05-07T07:40:48;2.93;;;1.60;;
76262;SDS011;65080;50.908;6.916;2023-05-07T07:43:18;1.87;;;1.50;;
76262;SDS011;65080;50.908;6.916;2023-05-07T07:45:46;2.40;;;2.20;;
76262;SDS011;65080;50.908;6.916;2023-05-07T07:48:15;2.70;;;2.00;;
76262;SDS011;65080;50.908;6.916;2023-05-07T07:50:43;4.10;;;1.90;;
76262;SDS011;65080;50.908;6.916;2023-05-07T07:53:12;3.60;;;1.83;;
76262;SDS011;65080;50.908;6.916;2023-05-07T07:55:48;2.27;;;1.50;;
76262;SDS011;65080;50.908;6.916;2023-05-07T07:58:18;5.13;;;1.83;;
76262;SDS011;65080;50.908;6.916;2023-05-07T08:00:46;2.27;;;1.63;;
76262;SDS011;65080;50.908;6.916;2023-05-07T08:03:14;3.50;;;1.93;;
76262;SDS011;65080;50.908;6.916;2023-05-07T08:05:43;4.00;;;1.40;;
76262;SDS011;65080;50.908;6.916;2023-05-07T08:08:11;2.70;;;1.87;;
76262;SDS011;65080;50.908;6.916;2023-05-07T08:10:40;1.73;;;1.50;;
76262;SDS011;65080;50.908;6.916;2023-05-07T08:13:08;2.30;;;1.87;;
76262;SDS011;65080;50.908;6.916;2023-05-07T08:15:38;9.10;;;2.10;;
76262;SDS011;65080;50.908;6.916;2023-05-07T08:18:06;2.87;;;1.70;;
76262;SDS011;65080;50.908;6.916;2023-05-07T08:20:35;4.83;;;1.77;;
76262;SDS011;65080;50.908;6.916;2023-05-07T08:23:05;2.10;;;1.83;;
76262;SDS011;65080;50.908;6.916;2023-05-07T08:25:34;2.70;;;1.97;;
76262;SDS011;65080;50.908;6.916;2023-05-07T08:28:03;6.83;;;1.87;;
76262;SDS011;65080;50.908;6.916;2023-05-07T08:30:35;4.33;;;2.23;;
76262;SDS011;65080;50.908;6.916;2023-05-07T08:33:05;2.97;;;1.77;;
76262;SDS011;65080;50.908;6.916;2023-05-07T08:35:33;2.20;;;1.93;;
76262;SDS011;65080;50.908;6.916;2023-05-07T08:38:01;4.10;;;2.23;;
76262;SDS011;65080;50.908;6.916;2023-05-07T08:40:30;1.80;;;1.40;;
76262;SDS011;65080;50.908;6.916;2023-05-07T08:43:05;2.63;;;2.13;;
76262;SDS011;65080;50.908;6.916;2023-05-07T08:45:34;4.73;;;1.90;;
76262;SDS011;65080;50.908;6.916;2023-05-07T08:48:03;2.87;;;1.70;;
76262;SDS011;65080;50.908;6.916;2023-05-07T08:50:36;2.77;;;1.80;;
76262;SDS011;65080;50.908;6.916;2023-05-07T08:53:05;7.03;;;2.00;;
76262;SDS011;65080;50.908;6.916;2023-05-07T08:55:34;3.83;;;2.07;;
76262;SDS011;65080;50.908;6.916;2023-05-07T08:58:02;1.87;;;1.73;;
76262;SDS011;65080;50.908;6.916;2023-05-07T09:00:31;4.20;;;1.80;;
76262;SDS011;65080;50.908;6.916;2023-05-07T09:03:00;2.90;;;1.93;;
76262;SDS011;65080;50.908;6.916;2023-05-07T09:05:30;5.27;;;1.73;;
76262;SDS011;65080;50.908;6.916;2023-05-07T09:07:59;7.73;;;2.00;;
76262;SDS011;65080;50.908;6.916;2023-05-07T09:10:29;1.90;;;1.50;;
76262;SDS011;65080;50.908;6.916;2023-05-07T09:12:57;2.93;;;2.13;;
76262;SDS011;65080;50.908;6.916;2023-05-07T09:18:16;1.80;;;1.53;;
76262;SDS011;65080;50.908;6.916;2023-05-07T09:20:45;2.93;;;2.03;;
76262;SDS011;65080;50.908;6.916;2023-05-07T09:23:14;2.37;;;1.50;;
76262;SDS011;65080;50.908;6.916;2023-05-07T09:25:42;3.57;;;1.57;;
76262;SDS011;65080;50.908;6.916;2023-05-07T09:28:10;4.43;;;1.70;;
76262;SDS011;65080;50.908;6.916;2023-05-07T09:30:39;4.20;;;2.30;;
76262;SDS011;65080;50.908;6.916;2023-05-07T09:33:07;2.67;;;2.00;;
76262;SDS011;65080;50.908;6.916;2023-05-07T09:35:37;4.20;;;2.03;;
76262;SDS011;65080;50.908;6.916;2023-05-07T09:38:07;2.80;;;1.70;;
76262;SDS011;65080;50.908;6.916;2023-05-07T09:40:35;5.87;;;2.00;;
76262;SDS011;65080;50.908;6.916;2023-05-07T09:43:10;2.30;;;1.80;;
76262;SDS011;65080;50.908;6.916;2023-05-07T09:45:40;16.13;;;2.37;;
76262;SDS011;65080;50.908;6.916;2023-05-07T09:48:09;1.97;;;1.30;;
76262;SDS011;65080;50.908;6.916;2023-05-07T09:50:41;2.63;;;1.77;;
76262;SDS011;65080;50.908;6.916;2023-05-07T09:53:17;3.37;;;2.10;;
76262;SDS011;65080;50.908;6.916;2023-05-07T09:55:45;4.20;;;1.70;;
76262;SDS011;65080;50.908;6.916;2023-05-07T09:58:14;2.40;;;1.67;;
76262;SDS011;65080;50.908;6.916;2023-05-07T10:00:43;2.43;;;1.70;;
76262;SDS011;65080;50.908;6.916;2023-05-07T10:03:13;2.23;;;1.67;;
76262;SDS011;65080;50.908;6.916;2023-05-07T10:05:43;2.23;;;1.50;;
76262;SDS011;65080;50.908;6.916;2023-05-07T10:08:13;3.23;;;1.53;;
76262;SDS011;65080;50.908;6.916;2023-05-07T10:10:45;2.13;;;1.40;;
76262;SDS011;65080;50.908;6.916;2023-05-07T10:13:13;2.40;;;1.53;;
76262;SDS011;65080;50.908;6.916;2023-05-07T10:15:43;1.77;;;1.67;;
76262;SDS011;65080;50.908;6.916;2023-05-07T10:18:13;3.33;;;1.80;;
76262;SDS011;65080;50.908;6.916;2023-05-07T10:20:43;2.57;;;1.50;;
76262;SDS011;65080;50.908;6.916;2023-05-07T10:23:14;2.40;;;1.60;;
76262;SDS011;65080;50.908;6.916;2023-05-07T10:25:52;4.40;;;1.57;;
76262;SDS011;65080;50.908;6.916;2023-05-07T10:28:26;4.57;;;2.13;;
76262;SDS011;65080;50.908;6.916;2023-05-07T10:30:58;2.00;;;1.80;;
76262;SDS011;65080;50.908;6.916;2023-05-07T10:33:35;2.97;;;1.70;;
76262;SDS011;65080;50.908;6.916;2023-05-07T10:36:05;3.80;;;1.87;;
76262;SDS011;65080;50.908;6.916;2023-05-07T10:38:34;3.40;;;1.40;;
76262;SDS011;65080;50.908;6.916;2023-05-07T10:41:06;3.10;;;1.90;;
76262;SDS011;65080;50.908;6.916;2023-05-07T10:43:40;1.80;;;1.40;;
76262;SDS011;65080;50.908;6.916;2023-05-07T10:46:14;3.23;;;1.43;;
76262;SDS011;65080;50.908;6.916;2023-05-07T10:51:35;1.90;;;1.50;;
76262;SDS011;65080;50.908;6.916;2023-05-07T10:56:57;1.63;;;1.53;;
76262;SDS011;65080;50.908;6.916;2023-05-07T11:00:02;3.33;;;1.67;;
76262;SDS011;65080;50.908;6.916;2023-05-07T11:05:39;3.27;;;1.30;;
76262;SDS011;65080;50.908;6.916;2023-05-07T11:08:08;2.60;;;1.50;;
76262;SDS011;65080;50.908;6.916;2023-05-07T11:10:50;1.87;;;1.63;;
76262;SDS011;65080;50.908;6.916;2023-05-07T11:16:18;2.40;;;1.20;;
76262;SDS011;65080;50.908;6.916;2023-05-07T11:18:48;3.70;;;1.50;;
76262;SDS011;65080;50.908;6.916;2023-05-07T11:21:31;2.27;;;1.50;;
76262;SDS011;65080;50.908;6.916;2023-05-07T11:24:01;3.00;;;1.23;;
76262;SDS011;65080;50.908;6.916;2023-05-07T11:26:32;2.00;;;1.30;;
76262;SDS011;65080;50.908;6.916;2023-05-07T11:29:11;2.03;;;1.10;;
76262;SDS011;65080;50.908;6.916;2023-05-07T11:31:41;4.47;;;1.67;;
76262;SDS011;65080;50.908;6.916;2023-05-07T11:34:10;3.23;;;1.27;;
76262;SDS011;65080;50.908;6.916;2023-05-07T11:36:42;2.13;;;1.30;;
76262;SDS011;65080;50.908;6.916;2023-05-07T11:42:02;2.47;;;1.10;;
76262;SDS011;65080;50.908;6.916;2023-05-07T11:44:42;1.23;;;1.13;;
76262;SDS011;65080;50.908;6.916;2023-05-07T11:47:16;2.53;;;1.10;;
76262;SDS011;65080;50.908;6.916;2023-05-07T11:49:46;2.50;;;1.30;;
76262;SDS011;65080;50.908;6.916;2023-05-07T11:52:15;1.27;;;1.00;;
76262;SDS011;65080;50.908;6.916;2023-05-07T11:54:48;1.53;;;1.27;;
76262;SDS011;65080;50.908;6.916;2023-05-07T11:57:17;1.57;;;1.10;;
76262;SDS011;65080;50.908;6.916;2023-05-07T11:59:47;2.40;;;1.17;;
76262;SDS011;65080;50.908;6.916;2023-05-07T12:02:20;2.33;;;1.20;;
76262;SDS011;65080;50.908;6.916;2023-05-07T12:04:48;1.67;;;0.97;;
76262;SDS011;65080;50.908;6.916;2023-05-07T12:07:17;1.40;;;1.10;;
76262;SDS011;65080;50.908;6.916;2023-05-07T12:09:46;2.00;;;1.33;;
76262;SDS011;65080;50.908;6.916;2023-05-07T12:12:15;1.90;;;1.20;;
76262;SDS011;65080;50.908;6.916;2023-05-07T12:14:44;2.00;;;1.10;;
76262;SDS011;65080;50.908;6.916;2023-05-07T12:17:14;1.13;;;1.00;;
76262;SDS011;65080;50.908;6.916;2023-05-07T12:19:44;1.90;;;1.47;;
76262;SDS011;65080;50.908;6.916;2023-05-07T12:22:13;2.87;;;1.30;;
76262;SDS011;65080;50.908;6.916;2023-05-07T12:24:45;1.40;;;1.30;;
76262;SDS011;65080;50.908;6.916;2023-05-07T12:27:15;1.90;;;1.40;;
76262;SDS011;65080;50.908;6.916;2023-05-07T12:29:44;5.60;;;1.67;;
76262;SDS011;65080;50.908;6.916;2023-05-07T12:32:15;2.40;;;1.40;;
76262;SDS011;65080;50.908;6.916;2023-05-07T12:34:45;1.97;;;1.13;;
76262;SDS011;65080;50.908;6.916;2023-05-07T12:37:13;1.43;;;1.10;;
76262;SDS011;65080;50.908;6.916;2023-05-07T12:39:46;2.70;;;1.63;;
76262;SDS011;65080;50.908;6.916;2023-05-07T12:42:15;2.27;;;1.60;;
76262;SDS011;65080;50.908;6.916;2023-05-07T12:44:50;2.97;;;1.53;;
76262;SDS011;65080;50.908;6.916;2023-05-07T12:47:20;1.67;;;1.30;;
76262;SDS011;65080;50.908;6.916;2023-05-07T12:49:48;2.37;;;1.73;;
76262;SDS011;65080;50.908;6.916;2023-05-07T12:52:17;2.37;;;1.40;;
76262;SDS011;65080;50.908;6.916;2023-05-07T12:54:45;3.70;;;1.63;;
76262;SDS011;65080;50.908;6.916;2023-05-07T12:57:15;4.63;;;1.53;;
76262;SDS011;65080;50.908;6.916;2023-05-07T12:59:48;1.93;;;1.30;;
76262;SDS011;65080;50.908;6.916;2023-05-07T13:02:16;1.77;;;1.40;;
76262;SDS011;65080;50.908;6.916;2023-05-07T13:04:46;3.20;;;1.70;;
76262;SDS011;65080;50.908;6.916;2023-05-07T13:07:14;3.73;;;2.00;;
76262;SDS011;65080;50.908;6.916;2023-05-07T13:09:43;1.80;;;1.70;;
76262;SDS011;65080;50.908;6.916;2023-05-07T13:12:11;2.60;;;1.83;;
76262;SDS011;65080;50.908;6.916;2023-05-07T13:14:39;4.23;;;1.90;;
76262;SDS011;65080;50.908;6.916;2023-05-07T13:17:08;2.30;;;1.67;;
76262;SDS011;65080;50.908;6.916;2023-05-07T13:19:36;4.90;;;2.87;;
76262;SDS011;65080;50.908;6.916;2023-05-07T13:22:06;22.07;;;7.00;;
76262;SDS011;65080;50.908;6.916;2023-05-07T13:24:35;5.97;;;3.00;;
76262;SDS011;65080;50.908;6.916;2023-05-07T13:27:03;7.80;;;2.30;;
76262;SDS011;65080;50.908;6.916;2023-05-07T13:29:32;2.33;;;1.90;;
76262;SDS011;65080;50.908;6.916;2023-05-07T13:32:00;2.57;;;1.77;;
76262;SDS011;65080;50.908;6.916;2023-05-07T13:34:29;3.47;;;2.00;;
76262;SDS011;65080;50.908;6.916;2023-05-07T13:36:57;2.53;;;2.30;;
76262;SDS011;65080;50.908;6.916;2023-05-07T13:39:27;2.40;;;1.83;;
76262;SDS011;65080;50.908;6.916;2023-05-07T13:41:55;2.90;;;2.00;;
76262;SDS011;65080;50.908;6.916;2023-05-07T13:44:24;5.23;;;3.17;;
76262;SDS011;65080;50.908;6.916;2023-05-07T13:46:52;4.23;;;2.20;;
76262;SDS011;65080;50.908;6.916;2023-05-07T13:49:20;2.77;;;2.57;;
76262;SDS011;65080;50.908;6.916;2023-05-07T13:51:49;5.50;;;2.40;;
76262;SDS011;65080;50.908;6.916;2023-05-07T13:54:18;2.87;;;2.30;;
76262;SDS011;65080;50.908;6.916;2023-05-07T13:56:47;4.07;;;2.40;;
76262;SDS011;65080;50.908;6.916;2023-05-07T13:59:16;4.00;;;2.30;;
76262;SDS011;65080;50.908;6.916;2023-05-07T14:01:44;6.97;;;2.93;;
76262;SDS011;65080;50.908;6.916;2023-05-07T14:04:12;3.87;;;2.10;;
76262;SDS011;65080;50.908;6.916;2023-05-07T14:06:41;2.23;;;2.03;;
76262;SDS011;65080;50.908;6.916;2023-05-07T14:09:09;4.17;;;2.03;;
76262;SDS011;65080;50.908;6.916;2023-05-07T14:11:39;4.60;;;2.33;;
76262;SDS011;65080;50.908;6.916;2023-05-07T14:14:09;4.83;;;2.60;;
76262;SDS011;65080;50.908;6.916;2023-05-07T14:16:38;4.90;;;2.77;;
76262;SDS011;65080;50.908;6.916;2023-05-07T14:19:06;3.20;;;2.90;;
76262;SDS011;65080;50.908;6.916;2023-05-07T14:21:34;6.83;;;3.00;;
76262;SDS011;65080;50.908;6.916;2023-05-07T14:24:03;3.60;;;2.57;;
76262;SDS011;65080;50.908;6.916;2023-05-07T14:26:32;4.43;;;2.40;;
76262;SDS011;65080;50.908;6.916;2023-05-07T14:29:00;2.83;;;2.57;;
76262;SDS011;65080;50.908;6.916;2023-05-07T14:31:32;2.90;;;2.47;;
76262;SDS011;65080;50.908;6.916;2023-05-07T14:34:01;2.70;;;2.33;;
76262;SDS011;65080;50.908;6.916;2023-05-07T14:36:29;5.27;;;2.33;;
76262;SDS011;65080;50.908;6.916;2023-05-07T14:38:58;3.30;;;2.30;;
76262;SDS011;65080;50.908;6.916;2023-05-07T14:41:26;4.07;;;2.27;;
76262;SDS011;65080;50.908;6.916;2023-05-07T14:43:55;4.27;;;2.03;;
76262;SDS011;65080;50.908;6.916;2023-05-07T14:46:25;3.37;;;2.10;;
76262;SDS011;65080;50.908;6.916;2023-05-07T14:48:55;4.20;;;1.70;;
76262;SDS011;65080;50.908;6.916;2023-05-07T14:51:24;2.10;;;1.87;;
76262;SDS011;65080;50.908;6.916;2023-05-07T14:53:54;5.27;;;2.83;;
76262;SDS011;65080;50.908;6.916;2023-05-07T14:56:22;3.03;;;2.23;;
76262;SDS011;65080;50.908;6.916;2023-05-07T14:58:51;3.60;;;2.37;;
76262;SDS011;65080;50.908;6.916;2023-05-07T15:01:19;3.27;;;2.43;;
76262;SDS011;65080;50.908;6.916;2023-05-07T15:03:48;7.00;;;2.47;;
76262;SDS011;65080;50.908;6.916;2023-05-07T15:06:18;3.83;;;2.90;;
76262;SDS011;65080;50.908;6.916;2023-05-07T15:08:46;3.93;;;2.87;;
76262;SDS011;65080;50.908;6.916;2023-05-07T15:11:15;5.30;;;3.23;;
76262;SDS011;65080;50.908;6.916;2023-05-07T15:13:43;3.83;;;2.60;;
76262;SDS011;65080;50.908;6.916;2023-05-07T15:16:12;4.70;;;3.20;;
76262;SDS011;65080;50.908;6.916;2023-05-07T15:18:40;5.00;;;3.03;;